Time;durP1;ratioP1;P1;durP2;ratioP2;P2;SDS_P1;SDS_P2;PMS_P1;PMS_P2;Temp;Humidity;BMP_temperature;BMP_pressure;BME280_temperature;BME280_humidity;BME280_pressure;Samples;Min_cycle;Max_cycle;Signal;HPM_P1;HPM_P2
2021/12/28 00:00:40;;;;;;;24.10;15.67;;;;;;;-4.85;88.81;100391.67;1693249;83;20956;-72
2021/12/28 00:03:06;;;;;;;26.20;19.00;;;;;;;-4.85;88.78;100391.67;1730971;82;21160;-70
2021/12/28 00:05:32;;;;;;;32.80;19.53;;;;;;;-4.83;88.72;100394.98;1750309;81;21054;-70
2021/12/28 00:07:59;;;;;;;29.10;16.90;;;;;;;-4.88;88.48;100390.61;1735832;81;21054;-72
2021/12/28 00:10:25;;;;;;;23.23;16.93;;;;;;;-4.96;88.44;100389.98;1750216;82;20938;-71
2021/12/28 00:12:52;;;;;;;27.83;18.20;;;;;;;-5.01;88.48;100393.96;1750495;81;20985;-73
2021/12/28 00:17:59;;;;;;;29.57;19.43;;;;;;;-4.99;88.74;100394.67;1748791;82;20985;-71
2021/12/28 00:20:38;;;;;;;29.70;19.40;;;;;;;-4.94;88.72;100402.47;1748806;82;20940;-70
2021/12/28 00:23:14;;;;;;;34.67;21.20;;;;;;;-4.92;88.49;100388.75;1746017;82;21014;-70
2021/12/28 00:25:42;;;;;;;26.63;18.43;;;;;;;-4.93;88.45;100392.33;1745119;82;20999;-73
2021/12/28 00:28:08;;;;;;;28.43;18.70;;;;;;;-4.95;88.31;100389.50;1745805;82;21304;-71
2021/12/28 00:30:34;;;;;;;28.77;18.97;;;;;;;-5.00;88.36;100387.28;1718187;82;21021;-75
2021/12/28 00:33:04;;;;;;;31.03;20.27;;;;;;;-5.04;88.31;100379.81;1708323;83;21436;-71
2021/12/28 00:35:34;;;;;;;30.87;18.70;;;;;;;-5.01;88.44;100385.62;1720569;83;21015;-73
2021/12/28 00:38:03;;;;;;;24.10;16.33;;;;;;;-5.02;88.46;100381.33;1714608;83;21148;-75
2021/12/28 00:40:30;;;;;;;26.67;17.17;;;;;;;-5.03;88.51;100374.90;1702766;83;21094;-71
2021/12/28 00:42:57;;;;;;;29.90;20.37;;;;;;;-5.06;88.42;100368.62;1724423;83;21056;-73
2021/12/28 00:45:23;;;;;;;22.90;16.90;;;;;;;-5.05;88.46;100371.59;1738798;82;21029;-70
2021/12/28 00:47:50;;;;;;;25.57;17.07;;;;;;;-5.09;88.23;100365.80;1724425;83;20991;-72
2021/12/28 00:50:17;;;;;;;19.70;11.63;;;;;;;-5.08;88.31;100363.50;1702604;83;21031;-72
2021/12/28 00:52:46;;;;;;;22.40;16.43;;;;;;;-5.02;88.34;100362.14;1738587;82;21506;-75
2021/12/28 00:55:14;;;;;;;22.73;16.63;;;;;;;-5.03;88.17;100363.09;1738496;82;21633;-73
2021/12/28 00:57:41;;;;;;;26.67;17.17;;;;;;;-5.08;88.04;100362.66;1703771;83;21749;-75
2021/12/28 01:00:18;;;;;;;14.13;9.77;;;;;;;-5.18;88.37;100358.73;1719273;82;21524;-73
2021/12/28 01:02:44;;;;;;;23.37;17.67;;;;;;;-5.31;88.85;100355.48;1705169;83;21052;-79
2021/12/28 01:05:10;;;;;;;25.33;19.33;;;;;;;-5.37;89.05;100359.97;1703407;83;21052;-71
2021/12/28 01:07:39;;;;;;;25.67;15.50;;;;;;;-5.37;89.15;100356.84;1708235;83;21078;-74
2021/12/28 01:10:10;;;;;;;20.33;13.97;;;;;;;-5.34;89.26;100361.84;1719459;82;21009;-71
2021/12/28 01:12:38;;;;;;;24.20;17.20;;;;;;;-5.31;89.38;100360.73;1728895;81;21027;-71
2021/12/28 01:15:07;;;;;;;22.67;16.63;;;;;;;-5.21;89.48;100367.32;1767605;81;21019;-73
2021/12/28 01:17:36;;;;;;;24.40;17.30;;;;;;;-5.15;89.43;100358.94;1710319;83;20976;-74
2021/12/28 01:20:05;;;;;;;28.47;19.43;;;;;;;-5.09;89.35;100362.34;1728612;82;20955;-74
2021/12/28 01:22:33;;;;;;;22.03;17.07;;;;;;;-5.08;89.21;100356.94;1739143;82;20992;-72
2021/12/28 01:24:59;;;;;;;28.90;21.70;;;;;;;-5.08;89.04;100353.48;1719360;82;21060;-72
2021/12/28 01:27:25;;;;;;;26.20;19.57;;;;;;;-5.11;89.00;100352.45;1738700;82;20967;-74
2021/12/28 01:29:52;;;;;;;26.23;18.57;;;;;;;-5.09;89.02;100359.23;1719401;82;21050;-73
2021/12/28 01:32:18;;;;;;;29.63;19.00;;;;;;;-5.11;89.05;100351.98;1724889;83;20991;-74
2021/12/28 01:34:46;;;;;;;27.60;18.10;;;;;;;-5.11;88.94;100359.01;1720588;83;21012;-74
2021/12/28 01:37:12;;;;;;;21.63;15.73;;;;;;;-5.12;89.04;100351.63;1714454;83;21035;-75
2021/12/28 01:39:39;;;;;;;24.47;16.90;;;;;;;-5.11;89.14;100353.28;1687687;84;21097;-73
2021/12/28 01:42:07;;;;;;;24.17;18.07;;;;;;;-5.17;89.14;100360.36;1714416;83;21960;-75
2021/12/28 01:44:35;;;;;;;25.93;17.63;;;;;;;-5.17;89.21;100360.84;1664481;84;20985;-77
2021/12/28 01:47:02;;;;;;;24.13;17.40;;;;;;;-5.19;89.28;100360.16;1685505;83;20981;-74
2021/12/28 01:49:29;;;;;;;20.53;15.67;;;;;;;-5.24;89.26;100352.70;1684121;85;21083;-74
2021/12/28 01:51:56;;;;;;;25.50;16.83;;;;;;;-5.30;89.49;100355.36;1684256;85;21022;-74
2021/12/28 01:54:22;;;;;;;25.63;16.07;;;;;;;-5.37;89.59;100353.41;1664544;85;21974;-75
2021/12/28 01:56:49;;;;;;;20.53;16.13;;;;;;;-5.39;89.70;100352.70;1684106;85;21535;-73
2021/12/28 01:59:18;;;;;;;22.63;15.23;;;;;;;-5.32;89.92;100345.95;1684258;85;20967;-73
2021/12/28 02:01:45;;;;;;;22.77;17.33;;;;;;;-5.31;89.86;100338.45;1684031;85;21647;-72
2021/12/28 02:04:21;;;;;;;26.97;17.93;;;;;;;-5.32;89.84;100340.72;1664484;85;21067;-72
2021/12/28 02:06:50;;;;;;;28.27;18.37;;;;;;;-5.26;89.96;100338.87;1684114;84;21038;-71
2021/12/28 02:09:17;;;;;;;27.00;16.47;;;;;;;-5.21;89.86;100341.10;1664331;85;20932;-74
2021/12/28 02:11:44;;;;;;;21.83;16.13;;;;;;;-5.18;89.70;100335.61;1684258;84;21026;-75
2021/12/28 02:14:10;;;;;;;24.27;16.13;;;;;;;-5.16;89.53;100333.67;1684230;85;20948;-74
2021/12/28 02:16:40;;;;;;;23.10;17.70;;;;;;;-5.19;89.11;100327.39;1684300;85;20999;-74
2021/12/28 02:19:08;;;;;;;21.77;13.70;;;;;;;-5.22;89.00;100328.95;1684198;85;21796;-74
2021/12/28 02:21:35;;;;;;;21.67;14.63;;;;;;;-5.23;89.00;100324.70;1684181;85;21556;-75
2021/12/28 02:24:04;;;;;;;21.80;16.13;;;;;;;-5.35;88.72;100333.95;1684517;85;21055;-74
2021/12/28 02:26:30;;;;;;;26.60;16.37;;;;;;;-5.39;88.87;100327.80;1684481;85;21014;-74
2021/12/28 02:28:57;;;;;;;24.30;17.00;;;;;;;-5.45;89.03;100324.39;1684318;85;21034;-73
2021/12/28 02:31:24;;;;;;;18.83;14.07;;;;;;;-5.49;89.08;100336.11;1684261;84;21069;-72
2021/12/28 02:33:51;;;;;;;31.17;18.27;;;;;;;-5.47;89.22;100331.58;1684526;85;21038;-74
2021/12/28 02:36:18;;;;;;;21.87;13.00;;;;;;;-5.50;89.11;100331.81;1710798;83;21076;-72
2021/12/28 02:38:45;;;;;;;22.20;16.10;;;;;;;-5.49;89.14;100327.77;1750521;82;21051;-73
2021/12/28 02:41:12;;;;;;;26.03;17.30;;;;;;;-5.59;89.07;100328.20;1731070;81;21585;-73
2021/12/28 02:43:40;;;;;;;21.93;17.00;;;;;;;-5.55;89.22;100332.69;1732858;81;21147;-73
2021/12/28 02:46:08;;;;;;;21.30;14.87;;;;;;;-5.58;89.13;100331.66;1750276;80;20965;-73
2021/12/28 02:48:35;;;;;;;27.27;16.23;;;;;;;-5.62;89.22;100330.27;1737706;81;21044;-72
2021/12/28 02:51:05;;;;;;;20.27;13.97;;;;;;;-5.61;89.29;100335.34;1750508;80;21002;-74
2021/12/28 02:53:32;;;;;;;21.00;16.23;;;;;;;-5.55;89.31;100339.24;1730441;82;21024;-72
2021/12/28 02:55:59;;;;;;;22.77;16.47;;;;;;;-5.58;89.02;100331.66;1750421;82;21589;-71
2021/12/28 02:58:37;;;;;;;18.40;14.27;;;;;;;-5.57;89.09;100327.61;1706203;82;21608;-71
2021/12/28 03:01:23;;;;;;;24.87;16.57;;;;;;;-5.48;89.10;100321.57;1704896;82;21076;-69
2021/12/28 03:03:53;;;;;;;19.20;13.00;;;;;;;-5.42;88.86;100321.53;1739277;81;21580;-71
2021/12/28 03:06:22;;;;;;;26.13;17.50;;;;;;;-5.46;88.24;100307.84;1722555;83;21031;-71
2021/12/28 03:08:53;;;;;;;21.47;13.37;;;;;;;-5.49;87.98;100315.14;1739084;82;21145;-78
2021/12/28 03:11:23;;;;;;;23.60;15.43;;;;;;;-5.57;87.77;100309.74;1723346;82;21036;-75
2021/12/28 03:13:53;;;;;;;27.37;19.17;;;;;;;-5.72;87.71;100310.56;1727335;82;20948;-75
2021/12/28 03:16:21;;;;;;;25.20;15.63;;;;;;;-5.76;87.97;100314.41;1708588;83;21015;-78
2021/12/28 03:18:49;;;;;;;26.63;17.30;;;;;;;-5.80;87.94;100320.37;1729063;82;20908;-76
2021/12/28 03:21:18;;;;;;;21.33;14.17;;;;;;;-5.90;88.03;100313.48;1749914;81;21129;-74
2021/12/28 03:23:45;;;;;;;20.23;12.70;;;;;;;-5.89;88.21;100300.70;1720491;83;21051;-74
2021/12/28 03:26:11;;;;;;;21.47;13.60;;;;;;;-6.01;88.15;100310.92;1697758;83;21012;-74
2021/12/28 03:28:40;;;;;;;26.47;16.57;;;;;;;-6.05;88.34;100307.74;1688611;82;21079;-77
2021/12/28 03:31:09;;;;;;;25.63;16.30;;;;;;;-6.04;88.44;100307.27;1750525;82;20948;-76
2021/12/28 03:33:39;;;;;;;23.20;16.43;;;;;;;-5.99;88.49;100305.06;1726961;82;21098;-78
2021/12/28 03:36:06;;;;;;;20.00;15.07;;;;;;;-5.98;88.31;100303.62;1705744;83;21525;-79
2021/12/28 03:38:33;;;;;;;23.80;15.27;;;;;;;-5.94;88.08;100298.95;1745170;82;21528;-79
2021/12/28 03:41:01;;;;;;;22.53;16.37;;;;;;;-5.95;87.85;100298.63;1746098;82;21563;-74
2021/12/28 03:43:29;;;;;;;18.83;13.07;;;;;;;-5.94;87.53;100305.03;1745734;82;21036;-74
2021/12/28 03:45:57;;;;;;;22.13;15.53;;;;;;;-5.92;87.39;100312.77;1714675;83;20960;-76
2021/12/28 03:48:26;;;;;;;23.73;13.73;;;;;;;-6.02;86.86;100315.80;1748394;81;21655;-80
2021/12/28 03:50:52;;;;;;;22.30;16.47;;;;;;;-6.03;86.94;100319.38;1740208;82;20909;-81
2021/12/28 03:53:18;;;;;;;21.07;10.53;;;;;;;-6.06;86.79;100317.02;1694027;83;21110;-79
2021/12/28 03:55:45;;;;;;;22.33;14.60;;;;;;;-6.09;86.66;100316.78;1748985;81;21020;-78
2021/12/28 03:58:11;;;;;;;20.13;14.63;;;;;;;-6.18;86.61;100307.91;1745154;82;22191;-80
2021/12/28 04:00:44;;;;;;;20.60;14.00;;;;;;;-6.20;86.70;100305.09;1730972;81;21733;-74
2021/12/28 04:03:12;;;;;;;23.77;14.97;;;;;;;-6.17;86.71;100303.05;1671356;83;21032;-79
2021/12/28 04:05:41;;;;;;;22.20;15.43;;;;;;;-6.21;86.59;100292.48;1693941;83;21043;-84
2021/12/28 04:08:08;;;;;;;26.97;17.97;;;;;;;-6.16;86.65;100289.48;1714043;83;21013;-85
2021/12/28 04:10:49;;;;;;;19.80;12.77;;;;;;;-6.07;86.76;100286.08;1745891;81;21726;-85
2021/12/28 04:13:02;;;;;;;25.97;17.70;;;;;;;-5.99;86.36;100286.25;1743077;82;20948;-85
2021/12/28 04:15:29;;;;;;;22.40;16.60;;;;;;;-5.98;86.09;100283.99;1749639;82;20992;-83
2021/12/28 04:17:55;;;;;;;26.83;18.40;;;;;;;-6.00;85.71;100282.00;1724134;82;20991;-86
2021/12/28 04:20:22;;;;;;;25.27;17.60;;;;;;;-6.06;85.67;100270.73;1695526;83;21608;-80
2021/12/28 04:22:49;;;;;;;25.87;16.07;;;;;;;-6.05;85.72;100262.40;1745565;82;22001;-81
2021/12/28 04:25:18;;;;;;;20.20;15.30;;;;;;;-6.08;85.51;100271.33;1745968;82;20905;-82
2021/12/28 04:27:44;;;;;;;25.53;17.30;;;;;;;-6.06;85.50;100279.06;1714795;83;21038;-77
2021/12/28 04:30:11;;;;;;;25.07;16.90;;;;;;;-6.04;85.47;100277.95;1733443;82;21041;-79
2021/12/28 04:32:38;;;;;;;25.23;16.97;;;;;;;-6.02;85.39;100284.38;1714874;83;20917;-81
2021/12/28 04:35:05;;;;;;;31.33;17.50;;;;;;;-5.99;85.28;100286.25;1740035;82;21065;-81
2021/12/28 04:37:33;;;;;;;21.43;13.53;;;;;;;-5.97;85.09;100290.89;1696935;83;20967;-82
2021/12/28 04:39:59;;;;;;;31.00;17.90;;;;;;;-5.99;84.77;100294.59;1749688;82;21047;-80
2021/12/28 04:42:27;;;;;;;28.73;17.17;;;;;;;-6.02;84.75;100285.70;1750432;82;21032;-79
2021/12/28 04:44:54;;;;;;;26.87;16.80;;;;;;;-6.04;84.80;100287.13;1750561;82;21009;-80
2021/12/28 04:47:20;;;;;;;31.77;20.63;;;;;;;-6.00;84.75;100283.31;1750657;81;21481;-81
2021/12/28 04:49:47;;;;;;;28.70;18.93;;;;;;;-6.02;84.48;100289.14;1749770;81;20968;-85
2021/12/28 04:52:14;;;;;;;29.53;20.07;;;;;;;-5.99;84.46;100280.19;1737618;82;21189;-78
2021/12/28 04:54:41;;;;;;;26.63;17.83;;;;;;;-6.10;84.17;100289.45;1750567;82;21518;-81
2021/12/28 04:57:07;;;;;;;26.87;18.40;;;;;;;-6.18;84.28;100282.22;1727133;82;21110;-78
2021/12/28 04:59:33;;;;;;;27.23;18.37;;;;;;;-6.19;84.44;100283.20;1693693;82;21120;-79
2021/12/28 05:01:59;;;;;;;30.90;18.43;;;;;;;-6.20;84.46;100283.67;1750637;82;21742;-79
2021/12/28 05:04:26;;;;;;;24.27;16.57;;;;;;;-6.19;84.56;100277.45;1750904;82;21504;-81
2021/12/28 05:06:54;;;;;;;26.10;16.47;;;;;;;-6.18;84.45;100275.20;1750367;82;21043;-80
2021/12/28 05:09:21;;;;;;;25.73;16.00;;;;;;;-6.20;84.34;100275.83;1705263;82;21062;-82
2021/12/28 05:11:48;;;;;;;20.37;14.77;;;;;;;-6.23;84.35;100275.23;1750633;82;21026;-81
2021/12/28 05:14:16;;;;;;;30.10;16.47;;;;;;;-6.26;84.40;100276.80;1750857;82;20999;-85
2021/12/28 05:16:43;;;;;;;28.97;20.23;;;;;;;-6.29;84.34;100282.31;1730936;82;21035;-81
2021/12/28 05:19:10;;;;;;;24.37;16.43;;;;;;;-6.26;84.53;100285.48;1749986;82;21056;-82
2021/12/28 05:21:36;;;;;;;25.83;17.07;;;;;;;-6.24;84.52;100287.52;1731203;82;21068;-82
2021/12/28 05:24:04;;;;;;;21.97;14.27;;;;;;;-6.25;84.50;100288.47;1727363;82;21161;-83
2021/12/28 05:26:30;;;;;;;23.43;16.40;;;;;;;-6.21;84.50;100282.48;1706260;82;21040;-82
2021/12/28 05:28:57;;;;;;;31.60;17.47;;;;;;;-6.20;84.44;100288.08;1750058;82;21013;-83
2021/12/28 05:31:27;;;;;;;27.37;17.57;;;;;;;-6.19;84.45;100295.78;1731150;81;21280;-83
2021/12/28 05:33:54;;;;;;;27.23;20.07;;;;;;;-6.19;84.36;100278.77;1750840;82;21080;-81
2021/12/28 05:36:22;;;;;;;28.90;19.30;;;;;;;-6.21;84.34;100269.40;1727341;82;21152;-83
2021/12/28 05:38:48;;;;;;;37.40;21.83;;;;;;;-6.19;84.42;100284.00;1730243;82;21024;-84
2021/12/28 05:41:18;;;;;;;29.00;17.80;;;;;;;-6.25;84.25;100279.30;1750483;82;21051;-84
2021/12/28 05:43:45;;;;;;;30.10;19.77;;;;;;;-6.29;84.38;100280.52;1731696;82;20976;-82
2021/12/28 05:46:12;;;;;;;28.60;18.17;;;;;;;-6.31;84.59;100279.81;1727849;82;20987;-81
2021/12/28 05:48:38;;;;;;;24.40;15.97;;;;;;;-6.32;84.75;100278.14;1731121;82;21429;-82
2021/12/28 05:51:05;;;;;;;23.93;15.37;;;;;;;-6.36;84.65;100286.38;1750760;82;21564;-78
2021/12/28 05:53:31;;;;;;;23.17;15.67;;;;;;;-6.46;84.72;100284.16;1727577;82;21023;-79
2021/12/28 05:55:57;;;;;;;22.07;16.17;;;;;;;-6.51;84.88;100282.41;1732212;82;21020;-80
2021/12/28 05:58:24;;;;;;;33.67;20.93;;;;;;;-6.49;85.02;100284.44;1751688;82;21059;-81
2021/12/28 06:00:50;;;;;;;27.70;16.80;;;;;;;-6.47;85.02;100293.00;1751525;82;22334;-80
2021/12/28 06:03:16;;;;;;;30.23;17.83;;;;;;;-6.47;84.84;100288.56;1750299;82;20983;-78
2021/12/28 06:05:43;;;;;;;22.67;16.47;;;;;;;-6.50;84.76;100281.45;1727397;82;21068;-78
2021/12/28 06:08:09;;;;;;;26.00;17.67;;;;;;;-6.51;84.69;100281.93;1726514;81;21031;-80
2021/12/28 06:10:36;;;;;;;28.23;19.53;;;;;;;-6.59;84.72;100286.14;1750206;82;20995;-81
2021/12/28 06:13:03;;;;;;;31.63;19.13;;;;;;;-6.63;84.80;100277.72;1750393;81;21971;-79
2021/12/28 06:15:30;;;;;;;24.13;17.53;;;;;;;-6.65;84.81;100280.45;1750565;81;21572;-80
2021/12/28 06:17:56;;;;;;;24.53;16.47;;;;;;;-6.66;84.93;100280.57;1749710;81;21537;-80
2021/12/28 06:20:22;;;;;;;32.97;18.00;;;;;;;-6.73;84.99;100273.72;1750664;82;21052;-80
2021/12/28 06:22:49;;;;;;;32.03;19.17;;;;;;;-6.76;85.03;100280.48;1750480;82;21047;-79
2021/12/28 06:25:15;;;;;;;29.97;20.20;;;;;;;-6.80;85.03;100285.63;1750496;81;21135;-79
2021/12/28 06:27:42;;;;;;;27.80;18.77;;;;;;;-6.78;85.10;100295.97;1749691;82;20964;-79
2021/12/28 06:30:10;;;;;;;28.57;21.67;;;;;;;-6.76;85.06;100290.95;1750309;82;21023;-80
2021/12/28 06:32:37;;;;;;;27.23;17.57;;;;;;;-6.72;85.08;100296.78;1750555;82;21022;-81
2021/12/28 06:35:05;;;;;;;35.80;20.97;;;;;;;-6.71;85.05;100293.19;1750351;82;21044;-82
2021/12/28 06:37:31;;;;;;;27.10;18.17;;;;;;;-6.72;84.98;100292.39;1705793;82;21535;-80
2021/12/28 06:39:57;;;;;;;28.27;18.53;;;;;;;-6.74;85.05;100295.59;1729947;82;21004;-81
2021/12/28 06:42:24;;;;;;;33.77;20.03;;;;;;;-6.71;85.05;100295.33;1750469;81;20976;-81
2021/12/28 06:44:52;;;;;;;27.37;17.90;;;;;;;-6.71;84.92;100302.34;1712363;83;21502;-82
2021/12/28 06:47:19;;;;;;;30.37;19.73;;;;;;;-6.76;84.86;100311.06;1712530;83;21553;-79
2021/12/28 06:49:46;;;;;;;31.90;19.60;;;;;;;-6.78;85.00;100303.81;1711571;82;21799;-80
2021/12/28 06:52:13;;;;;;;32.10;21.27;;;;;;;-6.74;85.08;100298.69;1730941;82;21560;-83
2021/12/28 06:54:40;;;;;;;42.00;18.47;;;;;;;-6.68;85.14;100299.03;1750499;82;21082;-78
2021/12/28 06:57:10;;;;;;;33.70;19.43;;;;;;;-6.61;85.09;100298.03;1750449;82;21508;-79
2021/12/28 06:59:38;;;;;;;33.33;20.87;;;;;;;-6.59;84.81;100303.98;1750396;80;21006;-81
2021/12/28 07:02:05;;;;;;;35.47;17.47;;;;;;;-6.57;84.59;100299.46;1730572;82;21581;-78
2021/12/28 07:04:33;;;;;;;25.90;15.93;;;;;;;-6.50;84.59;100295.84;1750286;82;21508;-79
2021/12/28 07:06:59;;;;;;;26.27;17.93;;;;;;;-6.49;84.20;100289.19;1750470;82;20948;-78
2021/12/28 07:09:25;;;;;;;32.30;21.37;;;;;;;-6.52;83.83;100292.03;1750415;82;20908;-79
2021/12/28 07:11:52;;;;;;;26.20;17.87;;;;;;;-6.56;83.73;100281.95;1726590;82;21016;-80
2021/12/28 07:14:20;;;;;;;31.37;19.13;;;;;;;-6.57;83.67;100286.38;1747783;82;21572;-79
2021/12/28 07:16:46;;;;;;;28.13;16.70;;;;;;;-6.57;83.71;100298.16;1736398;82;21508;-77
2021/12/28 07:19:13;;;;;;;27.00;15.87;;;;;;;-6.54;83.64;100296.58;1731150;82;21052;-79
2021/12/28 07:21:39;;;;;;;31.67;18.10;;;;;;;-6.50;83.47;100294.53;1728836;82;20959;-73
2021/12/28 07:24:07;;;;;;;28.47;15.50;;;;;;;-6.52;83.31;100296.47;1716615;82;21076;-74
2021/12/28 07:26:34;;;;;;;32.30;21.83;;;;;;;-6.52;83.25;100297.78;1726792;82;21055;-76
2021/12/28 07:29:01;;;;;;;31.77;17.67;;;;;;;-6.49;83.20;100294.89;1730886;82;20941;-74
2021/12/28 07:31:30;;;;;;;29.20;17.97;;;;;;;-6.49;82.95;100297.52;1750562;82;21007;-76
2021/12/28 07:33:56;;;;;;;29.73;18.73;;;;;;;-6.57;82.84;100294.23;1722985;82;21502;-72
2021/12/28 07:36:23;;;;;;;34.27;22.13;;;;;;;-6.59;82.92;100282.22;1711199;82;21588;-75
2021/12/28 07:38:49;;;;;;;34.23;18.30;;;;;;;-6.59;82.83;100271.75;1680898;84;21170;-80
2021/12/28 07:41:16;;;;;;;33.53;21.23;;;;;;;-6.56;82.81;100277.55;1680800;85;21000;-75
2021/12/28 07:43:43;;;;;;;32.83;19.00;;;;;;;-6.55;82.65;100279.22;1681130;83;21563;-77
2021/12/28 07:46:14;;;;;;;28.93;19.83;;;;;;;-6.56;82.57;100272.80;1711248;83;21553;-74
2021/12/28 07:48:41;;;;;;;27.20;18.77;;;;;;;-6.53;82.32;100275.18;1690164;83;21100;-75
2021/12/28 07:51:08;;;;;;;27.97;17.57;;;;;;;-6.52;82.09;100271.62;1714247;83;22645;-74
2021/12/28 07:53:36;;;;;;;35.20;20.07;;;;;;;-6.52;81.91;100273.72;1706061;83;21590;-77
2021/12/28 07:56:03;;;;;;;31.00;19.87;;;;;;;-6.50;81.43;100272.30;1703150;83;21531;-74
2021/12/28 07:58:29;;;;;;;28.47;19.93;;;;;;;-6.52;81.22;100279.46;1704453;83;21027;-73
2021/12/28 08:00:57;;;;;;;33.00;21.33;;;;;;;-6.56;80.84;100281.95;1710504;83;21025;-74
2021/12/28 08:03:24;;;;;;;33.13;19.90;;;;;;;-6.64;80.68;100266.42;1714484;83;21549;-73
2021/12/28 08:05:51;;;;;;;35.17;21.60;;;;;;;-6.68;80.52;100267.64;1705167;83;20917;-79
2021/12/28 08:08:17;;;;;;;37.20;21.23;;;;;;;-6.66;80.68;100272.25;1712321;83;21110;-80
2021/12/28 08:10:45;;;;;;;29.90;18.37;;;;;;;-6.66;80.46;100273.55;1702571;84;21107;-80
2021/12/28 08:13:16;;;;;;;29.83;18.60;;;;;;;-6.68;80.51;100272.04;1694130;83;21039;-79
2021/12/28 08:15:43;;;;;;;30.23;19.50;;;;;;;-6.68;80.45;100273.34;1671755;83;21067;-77
2021/12/28 08:18:12;;;;;;;37.17;22.17;;;;;;;-6.71;80.15;100270.96;1685770;84;20999;-80
2021/12/28 08:20:38;;;;;;;36.67;20.77;;;;;;;-6.66;80.39;100267.02;1656702;86;21040;-83
2021/12/28 08:23:07;;;;;;;39.50;23.87;;;;;;;-6.64;80.22;100262.50;1656642;86;21111;-79
2021/12/28 08:25:33;;;;;;;38.93;21.70;;;;;;;-6.68;79.92;100269.42;1657727;85;21074;-78
2021/12/28 08:28:04;;;;;;;37.60;20.83;;;;;;;-6.68;80.20;100265.50;1681219;84;21450;-79
2021/12/28 08:30:31;;;;;;;28.53;17.33;;;;;;;-6.76;79.98;100262.69;1706042;83;21055;-79
2021/12/28 08:32:58;;;;;;;31.33;19.30;;;;;;;-6.79;79.92;100257.69;1706046;84;21119;-76
2021/12/28 08:35:24;;;;;;;32.87;20.20;;;;;;;-6.78;79.79;100251.52;1693771;83;21049;-77
2021/12/28 08:37:51;;;;;;;28.33;18.77;;;;;;;-6.74;79.80;100246.38;1723217;81;21042;-78
2021/12/28 08:40:20;;;;;;;26.43;17.47;;;;;;;-6.70;79.65;100244.70;1754991;81;21216;-79
2021/12/28 08:42:47;;;;;;;25.20;17.20;;;;;;;-6.67;79.43;100248.38;1755565;81;20980;-76
2021/12/28 08:45:14;;;;;;;32.13;20.80;;;;;;;-6.70;79.16;100253.84;1743579;81;21524;-75
2021/12/28 08:47:42;;;;;;;28.97;19.10;;;;;;;-6.71;79.24;100242.20;1686722;83;20925;-78
2021/12/28 08:50:09;;;;;;;33.40;20.67;;;;;;;-6.69;79.12;100245.52;1725700;80;21043;-77
2021/12/28 08:52:36;;;;;;;28.53;17.87;;;;;;;-6.67;78.92;100237.92;1748859;80;21549;-79
2021/12/28 08:55:04;;;;;;;24.57;16.13;;;;;;;-6.63;78.88;100241.11;1748134;80;21113;-79
2021/12/28 08:57:32;;;;;;;33.67;20.97;;;;;;;-6.64;78.38;100238.97;1734385;81;20991;-82
2021/12/28 09:00:00;;;;;;;24.83;17.03;;;;;;;-6.59;78.47;100231.20;1756407;81;20996;-80
2021/12/28 09:02:27;;;;;;;43.50;28.87;;;;;;;-6.56;77.97;100229.64;1713321;82;21133;-78
2021/12/28 09:04:54;;;;;;;41.00;23.43;;;;;;;-6.56;78.03;100237.02;1755960;81;21748;-79
2021/12/28 09:07:21;;;;;;;31.93;21.67;;;;;;;-6.53;78.08;100233.33;1723092;81;20989;-80
2021/12/28 09:09:48;;;;;;;36.17;22.47;;;;;;;-6.48;77.88;100229.38;1736409;82;21639;-82
2021/12/28 09:12:14;;;;;;;42.37;23.63;;;;;;;-6.49;77.44;100227.71;1758468;81;21547;-83
2021/12/28 09:14:43;;;;;;;40.33;22.30;;;;;;;-6.45;77.43;100217.33;1741963;81;21050;-80
2021/12/28 09:17:10;;;;;;;26.40;16.57;;;;;;;-6.44;77.23;100220.31;1721894;81;21542;-76
2021/12/28 09:19:36;;;;;;;35.90;22.27;;;;;;;-6.50;77.22;100222.59;1701109;82;21107;-77
2021/12/28 09:22:04;;;;;;;33.33;18.63;;;;;;;-6.52;77.46;100213.55;1755987;81;21070;-79
2021/12/28 09:24:30;;;;;;;26.40;17.93;;;;;;;-6.49;77.09;100200.72;1736371;82;21048;-78
2021/12/28 09:26:57;;;;;;;31.70;19.83;;;;;;;-6.50;76.80;100198.58;1741806;81;21034;-75
2021/12/28 09:29:28;;;;;;;36.83;22.30;;;;;;;-6.50;76.75;100197.73;1728234;81;21157;-78
2021/12/28 09:31:53;;;;;;;36.17;24.37;;;;;;;-6.48;76.73;100202.38;1721988;82;20968;-74
2021/12/28 09:34:19;;;;;;;30.10;18.67;;;;;;;-6.49;76.78;100197.63;1752141;81;21587;-79
2021/12/28 09:36:46;;;;;;;37.67;22.33;;;;;;;-6.47;76.76;100191.77;1697287;82;21130;-81
2021/12/28 09:39:13;;;;;;;31.30;19.37;;;;;;;-6.44;76.85;100195.45;1730882;82;21076;-80
2021/12/28 09:41:39;;;;;;;33.03;19.23;;;;;;;-6.43;76.73;100188.44;1747954;82;21563;-77
2021/12/28 09:44:06;;;;;;;33.70;18.30;;;;;;;-6.37;76.50;100186.59;1705769;82;21008;-79
2021/12/28 09:46:34;;;;;;;31.13;18.97;;;;;;;-6.35;76.38;100191.22;1743796;82;21583;-77
2021/12/28 09:49:01;;;;;;;33.93;20.30;;;;;;;-6.31;76.33;100188.69;1726160;80;21523;-78
2021/12/28 09:51:27;;;;;;;25.60;16.83;;;;;;;-6.31;75.99;100185.59;1710529;81;21040;-77
2021/12/28 09:53:56;;;;;;;28.17;18.23;;;;;;;-6.29;75.87;100181.08;1712460;83;21088;-75
2021/12/28 09:56:22;;;;;;;28.00;17.00;;;;;;;-6.27;75.88;100183.55;1741772;82;21544;-76
2021/12/28 09:58:49;;;;;;;28.00;18.37;;;;;;;-6.27;75.56;100176.52;1750226;82;21460;-79
2021/12/28 10:01:15;;;;;;;33.33;18.47;;;;;;;-6.26;75.40;100166.41;1748640;82;21524;-76
2021/12/28 10:03:42;;;;;;;27.07;17.07;;;;;;;-6.22;74.84;100174.82;1728208;82;21019;-77
2021/12/28 10:06:22;;;;;;;27.40;17.83;;;;;;;-6.26;74.68;100170.81;1744975;82;21170;-74
2021/12/28 10:09:10;;;;;;;33.60;18.80;;;;;;;-6.27;74.52;100164.75;1705924;82;21111;-76
2021/12/28 10:11:43;;;;;;;28.83;17.50;;;;;;;-6.22;74.67;100176.96;1706372;82;21090;-76
2021/12/28 10:14:18;;;;;;;;;;;;;;;-6.19;74.50;100159.67;1722814;82;21091;-76
2021/12/28 10:16:54;;;;;;;28.00;17.17;;;;;;;-6.15;74.30;100153.72;1731336;82;20145;-73
2021/12/28 10:19:35;;;;;;;33.20;19.90;;;;;;;-6.17;73.80;100149.91;1735525;82;21908;-73
2021/12/28 10:22:38;;;;;;;28.60;17.53;;;;;;;-6.18;73.66;100152.66;1727006;82;20948;-76
2021/12/28 10:25:17;;;;;;;31.97;20.17;;;;;;;-6.21;73.42;100152.45;1749200;82;21055;-80
2021/12/28 10:27:51;;;;;;;22.10;15.30;;;;;;;-6.18;73.54;100157.89;1731105;82;21579;-75
2021/12/28 10:30:26;;;;;;;;;;;;;;;-6.15;73.27;100150.27;1723210;82;21044;-74
2021/12/28 10:32:58;;;;;;;28.67;16.07;;;;;;;-6.17;73.14;100150.39;1720267;82;21840;-77
2021/12/28 10:35:31;;;;;;;31.20;17.43;;;;;;;-6.16;73.13;100145.52;1733097;82;20988;-76
2021/12/28 10:38:05;;;;;;;31.50;20.23;;;;;;;-6.10;73.07;100142.37;1746217;81;21064;-76
2021/12/28 10:40:42;;;;;;;30.13;16.93;;;;;;;-6.04;73.35;100146.25;1740500;82;20866;-74
2021/12/28 10:43:11;;;;;;;27.67;13.83;;;;;;;-5.98;73.46;100141.77;1724604;81;21075;-78
2021/12/28 10:45:46;;;;;;;29.10;17.47;;;;;;;-5.89;72.92;100134.42;1708656;82;21197;-75
2021/12/28 10:48:17;;;;;;;29.13;16.87;;;;;;;-5.89;72.30;100141.80;1708013;84;21485;-75
2021/12/28 10:50:48;;;;;;;34.63;17.65;;;;;;;-5.91;71.94;100132.44;1694617;84;20940;-74
2021/12/28 10:53:23;;;;;;;31.43;19.23;;;;;;;-5.90;71.75;100127.55;1707713;84;21634;-75
2021/12/28 10:55:57;;;;;;;29.03;20.20;;;;;;;-5.86;71.73;100130.22;1714637;83;21610;-74
2021/12/28 10:58:41;;;;;;;27.00;17.07;;;;;;;-5.86;71.39;100134.97;1695589;84;21147;-75
2021/12/28 11:01:26;;;;;;;32.10;16.93;;;;;;;-5.84;71.15;100140.06;1675442;84;21171;-74
2021/12/28 11:03:56;;;;;;;33.23;19.70;;;;;;;-5.80;71.22;100134.41;1709830;83;21551;-75
2021/12/28 11:06:27;;;;;;;29.70;17.83;;;;;;;-5.79;70.76;100128.70;1727916;82;20948;-75
2021/12/28 11:09:09;;;;;;;27.97;18.30;;;;;;;-5.77;70.71;100133.33;1662328;85;21009;-74
2021/12/28 11:11:40;;;;;;;22.87;14.53;;;;;;;-5.77;70.68;100132.02;1653445;84;21827;-74
2021/12/28 11:14:11;;;;;;;28.63;17.10;;;;;;;-5.76;70.20;100121.42;1716936;83;21051;-78
2021/12/28 11:16:38;;;;;;;25.27;17.83;;;;;;;-5.77;70.09;100135.95;1707939;84;21032;-77